Terminal Aerodrome Forecast
Issued by NWS

Home | Current Version | Previous Version | Text Only | Print | Product List | Glossary On
Versions: 1 2 3 4 5 6 7 8 9 10 11 12 13 14 15
000
FTUS42 KMLB 181700 RRA
TAFFPR
TAF
KFPR 181742Z 1818/1918 11006KT P6SM VCSH SCT017
     FM182000 09010KT P6SM SCT035 SCT080
     FM190200 VRB03KT P6SM FEW030 BKN250
     FM191400 06006KT P6SM VCSH SCT025 SCT040 BKN120=

USA.gov is the U.S. government's official web portal to all federal, state and local government web resources and services.